sensor_id;sensor_type;location;lat;lon;timestamp;pressure;altitude;pressure_sealevel;temperature;humidity
69855;BME280;57146;48.140;16.304;2023-04-30T00:01:10;99458.22;;;12.15;82.86
69855;BME280;57146;48.140;16.304;2023-04-30T00:03:37;99469.09;;;12.13;81.84
69855;BME280;57146;48.140;16.304;2023-04-30T00:06:04;99463.94;;;12.08;81.30
69855;BME280;57146;48.140;16.304;2023-04-30T00:08:32;99462.50;;;12.02;80.33
69855;BME280;57146;48.140;16.304;2023-04-30T00:10:59;99464.19;;;11.98;80.46
69855;BME280;57146;48.140;16.304;2023-04-30T00:13:27;99463.69;;;11.87;79.01
69855;BME280;57146;48.140;16.304;2023-04-30T00:15:56;99469.34;;;11.81;78.40
69855;BME280;57146;48.140;16.304;2023-04-30T00:18:24;99468.56;;;11.71;77.48
69855;BME280;57146;48.140;16.304;2023-04-30T00:20:51;99472.97;;;11.62;77.55
69855;BME280;57146;48.140;16.304;2023-04-30T00:23:18;99476.94;;;11.51;76.96
69855;BME280;57146;48.140;16.304;2023-04-30T00:26:09;99489.28;;;11.42;77.11
69855;BME280;57146;48.140;16.304;2023-04-30T00:28:39;99484.72;;;11.34;77.22
69855;BME280;57146;48.140;16.304;2023-04-30T00:31:05;99480.47;;;11.24;76.36
69855;BME280;57146;48.140;16.304;2023-04-30T00:33:34;99490.16;;;11.15;76.69
69855;BME280;57146;48.140;16.304;2023-04-30T00:36:01;99490.00;;;11.11;76.75
69855;BME280;57146;48.140;16.304;2023-04-30T00:38:28;99504.06;;;11.07;77.13
69855;BME280;57146;48.140;16.304;2023-04-30T00:40:55;99498.59;;;11.03;77.31
69855;BME280;57146;48.140;16.304;2023-04-30T00:43:22;99497.41;;;10.95;77.56
69855;BME280;57146;48.140;16.304;2023-04-30T00:45:49;99509.34;;;10.93;78.06
69855;BME280;57146;48.140;16.304;2023-04-30T00:48:17;99501.72;;;10.91;78.10
69855;BME280;57146;48.140;16.304;2023-04-30T00:50:44;99503.41;;;10.87;78.14
69855;BME280;57146;48.140;16.304;2023-04-30T00:53:12;99502.44;;;10.83;77.96
69855;BME280;57146;48.140;16.304;2023-04-30T00:55:40;99510.63;;;10.82;78.49
69855;BME280;57146;48.140;16.304;2023-04-30T00:58:07;99501.75;;;10.77;78.01
69855;BME280;57146;48.140;16.304;2023-04-30T01:00:38;99509.94;;;10.76;78.27
69855;BME280;57146;48.140;16.304;2023-04-30T01:03:06;99519.22;;;10.73;77.76
69855;BME280;57146;48.140;16.304;2023-04-30T01:05:33;99525.06;;;10.70;77.69
69855;BME280;57146;48.140;16.304;2023-04-30T01:08:00;99534.16;;;10.64;77.63
69855;BME280;57146;48.140;16.304;2023-04-30T01:10:37;99526.53;;;10.63;77.87
69855;BME280;57146;48.140;16.304;2023-04-30T01:13:24;99540.78;;;10.62;77.54
69855;BME280;57146;48.140;16.304;2023-04-30T01:16:14;99537.16;;;10.58;78.12
69855;BME280;57146;48.140;16.304;2023-04-30T01:18:51;99538.81;;;10.53;77.26
69855;BME280;57146;48.140;16.304;2023-04-30T01:21:21;99532.28;;;10.51;78.10
69855;BME280;57146;48.140;16.304;2023-04-30T01:24:05;99533.38;;;10.50;78.63
69855;BME280;57146;48.140;16.304;2023-04-30T01:26:58;99534.72;;;10.47;78.34
69855;BME280;57146;48.140;16.304;2023-04-30T01:29:25;99534.53;;;10.44;78.36
69855;BME280;57146;48.140;16.304;2023-04-30T01:31:52;99536.66;;;10.42;78.37
69855;BME280;57146;48.140;16.304;2023-04-30T01:34:19;99544.34;;;10.38;78.18
69855;BME280;57146;48.140;16.304;2023-04-30T01:37:13;99541.44;;;10.40;78.26
69855;BME280;57146;48.140;16.304;2023-04-30T01:42:44;99543.31;;;10.39;77.94
69855;BME280;57146;48.140;16.304;2023-04-30T01:45:28;99539.88;;;10.39;78.10
69855;BME280;57146;48.140;16.304;2023-04-30T01:48:12;99540.38;;;10.41;77.67
69855;BME280;57146;48.140;16.304;2023-04-30T01:50:52;99539.28;;;10.42;77.49
69855;BME280;57146;48.140;16.304;2023-04-30T01:53:29;99555.84;;;10.42;77.56
69855;BME280;57146;48.140;16.304;2023-04-30T01:56:41;99549.53;;;10.43;76.94
69855;BME280;57146;48.140;16.304;2023-04-30T01:59:10;99540.06;;;10.42;77.46
69855;BME280;57146;48.140;16.304;2023-04-30T02:01:38;99549.34;;;10.40;77.52
69855;BME280;57146;48.140;16.304;2023-04-30T02:04:06;99549.91;;;10.37;77.83
69855;BME280;57146;48.140;16.304;2023-04-30T02:06:33;99551.78;;;10.36;78.01
69855;BME280;57146;48.140;16.304;2023-04-30T02:09:01;99559.38;;;10.38;77.46
69855;BME280;57146;48.140;16.304;2023-04-30T02:11:29;99558.00;;;10.40;77.65
69855;BME280;57146;48.140;16.304;2023-04-30T02:14:00;99562.50;;;10.40;77.13
69855;BME280;57146;48.140;16.304;2023-04-30T02:16:27;99568.81;;;10.39;77.45
69855;BME280;57146;48.140;16.304;2023-04-30T02:18:53;99571.44;;;10.39;77.88
69855;BME280;57146;48.140;16.304;2023-04-30T02:21:24;99575.16;;;10.38;77.72
69855;BME280;57146;48.140;16.304;2023-04-30T02:23:50;99573.88;;;10.35;78.58
69855;BME280;57146;48.140;16.304;2023-04-30T02:26:17;99576.25;;;10.37;78.58
69855;BME280;57146;48.140;16.304;2023-04-30T02:28:44;99581.00;;;10.35;77.97
69855;BME280;57146;48.140;16.304;2023-04-30T02:31:36;99576.03;;;10.33;78.34
69855;BME280;57146;48.140;16.304;2023-04-30T02:34:03;99580.22;;;10.34;78.50
69855;BME280;57146;48.140;16.304;2023-04-30T02:36:55;99582.06;;;10.34;78.67
69855;BME280;57146;48.140;16.304;2023-04-30T02:39:22;99590.75;;;10.34;78.92
69855;BME280;57146;48.140;16.304;2023-04-30T02:41:49;99587.13;;;10.30;78.22
69855;BME280;57146;48.140;16.304;2023-04-30T02:44:16;99592.69;;;10.28;78.11
69855;BME280;57146;48.140;16.304;2023-04-30T02:46:43;99596.88;;;10.29;78.55
69855;BME280;57146;48.140;16.304;2023-04-30T02:49:10;99599.00;;;10.27;78.47
69855;BME280;57146;48.140;16.304;2023-04-30T02:51:37;99612.94;;;10.28;78.82
69855;BME280;57146;48.140;16.304;2023-04-30T02:54:03;99609.84;;;10.26;79.08
69855;BME280;57146;48.140;16.304;2023-04-30T02:56:32;99602.72;;;10.26;79.27
69855;BME280;57146;48.140;16.304;2023-04-30T02:58:59;99605.34;;;10.26;79.06
69855;BME280;57146;48.140;16.304;2023-04-30T03:01:26;99598.00;;;10.23;78.99
69855;BME280;57146;48.140;16.304;2023-04-30T03:03:53;99593.50;;;10.24;79.24
69855;BME280;57146;48.140;16.304;2023-04-30T03:06:21;99603.50;;;10.27;79.21
69855;BME280;57146;48.140;16.304;2023-04-30T03:08:49;99597.47;;;10.26;79.04
69855;BME280;57146;48.140;16.304;2023-04-30T03:11:16;99596.94;;;10.24;79.06
69855;BME280;57146;48.140;16.304;2023-04-30T03:13:44;99594.81;;;10.26;79.30
69855;BME280;57146;48.140;16.304;2023-04-30T03:16:11;99599.00;;;10.27;79.20
69855;BME280;57146;48.140;16.304;2023-04-30T03:18:38;99607.69;;;10.28;79.71
69855;BME280;57146;48.140;16.304;2023-04-30T03:21:05;99603.50;;;10.27;79.32
69855;BME280;57146;48.140;16.304;2023-04-30T03:23:35;99596.16;;;10.24;79.32
69855;BME280;57146;48.140;16.304;2023-04-30T03:26:03;99609.06;;;10.25;79.01
69855;BME280;57146;48.140;16.304;2023-04-30T03:28:30;99611.47;;;10.22;79.35
69855;BME280;57146;48.140;16.304;2023-04-30T03:30:57;99605.50;;;10.16;79.52
69855;BME280;57146;48.140;16.304;2023-04-30T03:33:24;99609.97;;;10.16;79.90
69855;BME280;57146;48.140;16.304;2023-04-30T03:35:51;99610.53;;;10.13;80.07
69855;BME280;57146;48.140;16.304;2023-04-30T03:38:18;99599.53;;;10.11;80.15
69855;BME280;57146;48.140;16.304;2023-04-30T03:40:45;99603.53;;;10.08;80.26
69855;BME280;57146;48.140;16.304;2023-04-30T03:43:12;99606.16;;;10.08;80.14
69855;BME280;57146;48.140;16.304;2023-04-30T03:45:40;99614.03;;;10.08;80.16
69855;BME280;57146;48.140;16.304;2023-04-30T03:48:10;99614.81;;;10.08;80.35
69855;BME280;57146;48.140;16.304;2023-04-30T03:50:37;99622.72;;;10.08;80.19
69855;BME280;57146;48.140;16.304;2023-04-30T03:53:29;99620.84;;;10.09;80.39
69855;BME280;57146;48.140;16.304;2023-04-30T03:55:56;99618.22;;;10.09;80.41
69855;BME280;57146;48.140;16.304;2023-04-30T03:58:49;99618.22;;;10.09;80.18
69855;BME280;57146;48.140;16.304;2023-04-30T04:01:20;99630.31;;;10.10;80.18
69855;BME280;57146;48.140;16.304;2023-04-30T04:03:48;99632.94;;;10.10;80.15
69855;BME280;57146;48.140;16.304;2023-04-30T04:06:15;99642.31;;;10.16;79.81
69855;BME280;57146;48.140;16.304;2023-04-30T04:08:45;99638.91;;;10.16;79.45
69855;BME280;57146;48.140;16.304;2023-04-30T04:11:12;99643.66;;;10.14;79.40
69855;BME280;57146;48.140;16.304;2023-04-30T04:13:39;99641.03;;;10.14;79.97
69855;BME280;57146;48.140;16.304;2023-04-30T04:16:06;99643.38;;;10.15;79.81
69855;BME280;57146;48.140;16.304;2023-04-30T04:18:34;99644.06;;;10.21;79.27
69855;BME280;57146;48.140;16.304;2023-04-30T04:21:01;99651.19;;;10.20;78.84
69855;BME280;57146;48.140;16.304;2023-04-30T04:23:29;99651.75;;;10.17;78.74
69855;BME280;57146;48.140;16.304;2023-04-30T04:25:57;99653.34;;;10.18;79.17
69855;BME280;57146;48.140;16.304;2023-04-30T04:28:25;99653.34;;;10.18;79.09
69855;BME280;57146;48.140;16.304;2023-04-30T04:30:52;99655.97;;;10.18;78.97
69855;BME280;57146;48.140;16.304;2023-04-30T04:33:19;99668.56;;;10.21;79.11
69855;BME280;57146;48.140;16.304;2023-04-30T04:35:48;99665.63;;;10.23;79.24
69855;BME280;57146;48.140;16.304;2023-04-30T04:38:15;99664.06;;;10.22;78.96
69855;BME280;57146;48.140;16.304;2023-04-30T04:40:53;99658.50;;;10.23;79.38
69855;BME280;57146;48.140;16.304;2023-04-30T04:43:21;99667.97;;;10.24;79.22
69855;BME280;57146;48.140;16.304;2023-04-30T04:45:48;99662.22;;;10.22;79.40
69855;BME280;57146;48.140;16.304;2023-04-30T04:48:15;99671.41;;;10.25;79.07
69855;BME280;57146;48.140;16.304;2023-04-30T04:50:44;99668.75;;;10.25;79.18
69855;BME280;57146;48.140;16.304;2023-04-30T04:53:11;99674.84;;;10.25;79.36
69855;BME280;57146;48.140;16.304;2023-04-30T04:55:38;99680.88;;;10.26;79.65
69855;BME280;57146;48.140;16.304;2023-04-30T04:58:07;99684.78;;;10.28;79.27
69855;BME280;57146;48.140;16.304;2023-04-30T05:00:34;99678.16;;;10.31;79.29
69855;BME280;57146;48.140;16.304;2023-04-30T05:03:02;99691.81;;;10.33;79.58
69855;BME280;57146;48.140;16.304;2023-04-30T05:05:30;99691.50;;;10.35;78.30
69855;BME280;57146;48.140;16.304;2023-04-30T05:07:57;99699.13;;;10.36;78.34
69855;BME280;57146;48.140;16.304;2023-04-30T05:10:24;99697.50;;;10.40;78.71
69855;BME280;57146;48.140;16.304;2023-04-30T05:12:52;99694.00;;;10.45;78.33
69855;BME280;57146;48.140;16.304;2023-04-30T05:15:19;99704.72;;;10.48;78.36
69855;BME280;57146;48.140;16.304;2023-04-30T05:17:45;99705.44;;;10.54;77.59
69855;BME280;57146;48.140;16.304;2023-04-30T05:20:13;99710.34;;;10.61;78.00
69855;BME280;57146;48.140;16.304;2023-04-30T05:22:40;99712.59;;;10.67;77.78
69855;BME280;57146;48.140;16.304;2023-04-30T05:25:08;99719.31;;;10.73;77.43
69855;BME280;57146;48.140;16.304;2023-04-30T05:27:35;99712.41;;;10.77;76.67
69855;BME280;57146;48.140;16.304;2023-04-30T05:30:04;99729.56;;;10.75;76.71
69855;BME280;57146;48.140;16.304;2023-04-30T05:32:31;99723.13;;;10.81;76.24
69855;BME280;57146;48.140;16.304;2023-04-30T05:34:58;99725.97;;;10.85;76.88
69855;BME280;57146;48.140;16.304;2023-04-30T05:37:25;99725.91;;;10.90;77.41
69855;BME280;57146;48.140;16.304;2023-04-30T05:40:16;99726.38;;;10.92;76.51
69855;BME280;57146;48.140;16.304;2023-04-30T05:42:45;99724.44;;;10.97;75.53
69855;BME280;57146;48.140;16.304;2023-04-30T05:45:12;99727.84;;;10.98;74.94
69855;BME280;57146;48.140;16.304;2023-04-30T05:47:39;99730.50;;;10.98;75.38
69855;BME280;57146;48.140;16.304;2023-04-30T05:50:08;99736.06;;;10.96;75.17
69855;BME280;57146;48.140;16.304;2023-04-30T05:52:35;99732.34;;;10.97;75.18
69855;BME280;57146;48.140;16.304;2023-04-30T05:55:02;99737.63;;;10.97;74.28
69855;BME280;57146;48.140;16.304;2023-04-30T05:57:31;99735.47;;;10.99;73.75
69855;BME280;57146;48.140;16.304;2023-04-30T05:59:58;99731.00;;;11.00;74.48
69855;BME280;57146;48.140;16.304;2023-04-30T06:02:26;99739.38;;;11.02;74.02
69855;BME280;57146;48.140;16.304;2023-04-30T06:04:53;99745.63;;;11.06;74.67
69855;BME280;57146;48.140;16.304;2023-04-30T06:07:21;99736.34;;;11.09;73.97
69855;BME280;57146;48.140;16.304;2023-04-30T06:09:48;99739.13;;;11.17;74.16
69855;BME280;57146;48.140;16.304;2023-04-30T06:12:16;99744.78;;;11.24;73.08
69855;BME280;57146;48.140;16.304;2023-04-30T06:14:42;99745.94;;;11.32;72.01
69855;BME280;57146;48.140;16.304;2023-04-30T06:17:11;99749.38;;;11.33;72.01
69855;BME280;57146;48.140;16.304;2023-04-30T06:19:38;99737.66;;;11.39;70.60
69855;BME280;57146;48.140;16.304;2023-04-30T06:22:05;99733.84;;;11.45;70.42
69855;BME280;57146;48.140;16.304;2023-04-30T06:24:33;99739.50;;;11.52;69.70
69855;BME280;57146;48.140;16.304;2023-04-30T06:27:02;99738.91;;;11.55;69.69
69855;BME280;57146;48.140;16.304;2023-04-30T06:29:36;99742.25;;;11.61;69.76
69855;BME280;57146;48.140;16.304;2023-04-30T06:32:06;99736.44;;;11.72;69.61
69855;BME280;57146;48.140;16.304;2023-04-30T06:34:57;99743.19;;;11.79;68.75
69855;BME280;57146;48.140;16.304;2023-04-30T06:37:25;99739.97;;;11.82;67.92
69855;BME280;57146;48.140;16.304;2023-04-30T06:39:51;99736.25;;;11.83;68.65
69855;BME280;57146;48.140;16.304;2023-04-30T06:42:19;99737.81;;;11.84;67.95
69855;BME280;57146;48.140;16.304;2023-04-30T06:44:48;99745.66;;;11.89;68.18
69855;BME280;57146;48.140;16.304;2023-04-30T06:47:14;99738.56;;;11.98;68.51
69855;BME280;57146;48.140;16.304;2023-04-30T06:49:41;99748.13;;;12.08;67.03
69855;BME280;57146;48.140;16.304;2023-04-30T06:52:09;99748.19;;;12.16;68.00
69855;BME280;57146;48.140;16.304;2023-04-30T06:54:36;99745.75;;;12.20;65.73
69855;BME280;57146;48.140;16.304;2023-04-30T06:57:03;99739.41;;;12.21;65.66
69855;BME280;57146;48.140;16.304;2023-04-30T06:59:31;99744.75;;;12.30;65.20
69855;BME280;57146;48.140;16.304;2023-04-30T07:01:58;99743.06;;;12.34;65.07
69855;BME280;57146;48.140;16.304;2023-04-30T07:04:27;99743.56;;;12.36;64.60
69855;BME280;57146;48.140;16.304;2023-04-30T07:06:54;99740.69;;;12.46;64.76
69855;BME280;57146;48.140;16.304;2023-04-30T07:09:20;99739.03;;;12.59;64.04
69855;BME280;57146;48.140;16.304;2023-04-30T07:11:48;99740.66;;;12.68;63.11
69855;BME280;57146;48.140;16.304;2023-04-30T07:14:15;99741.94;;;12.71;62.92
69855;BME280;57146;48.140;16.304;2023-04-30T07:16:42;99738.69;;;12.74;62.41
69855;BME280;57146;48.140;16.304;2023-04-30T07:19:13;99741.19;;;12.79;62.04
69855;BME280;57146;48.140;16.304;2023-04-30T07:21:40;99737.91;;;12.74;61.48
69855;BME280;57146;48.140;16.304;2023-04-30T07:24:09;99728.66;;;12.85;62.08
69855;BME280;57146;48.140;16.304;2023-04-30T07:26:36;99733.44;;;12.83;60.64
69855;BME280;57146;48.140;16.304;2023-04-30T07:29:03;99743.84;;;12.79;61.77
69855;BME280;57146;48.140;16.304;2023-04-30T07:31:30;99742.56;;;12.77;61.12
69855;BME280;57146;48.140;16.304;2023-04-30T07:33:57;99737.56;;;12.66;61.23
69855;BME280;57146;48.140;16.304;2023-04-30T07:36:24;99735.22;;;12.65;61.46
69855;BME280;57146;48.140;16.304;2023-04-30T07:38:51;99732.75;;;12.68;62.40
69855;BME280;57146;48.140;16.304;2023-04-30T07:41:18;99745.84;;;12.74;61.70
69855;BME280;57146;48.140;16.304;2023-04-30T07:43:45;99741.38;;;12.83;60.97
69855;BME280;57146;48.140;16.304;2023-04-30T07:46:12;99739.06;;;12.90;60.62
69855;BME280;57146;48.140;16.304;2023-04-30T07:48:44;99736.59;;;12.93;60.16
69855;BME280;57146;48.140;16.304;2023-04-30T07:51:11;99742.59;;;13.08;62.22
69855;BME280;57146;48.140;16.304;2023-04-30T07:54:03;99745.13;;;13.22;59.40
69855;BME280;57146;48.140;16.304;2023-04-30T07:56:31;99743.69;;;13.38;59.17
69855;BME280;57146;48.140;16.304;2023-04-30T07:58:59;99743.53;;;13.43;59.65
69855;BME280;57146;48.140;16.304;2023-04-30T08:01:25;99743.69;;;13.38;58.67
69855;BME280;57146;48.140;16.304;2023-04-30T08:03:53;99739.94;;;13.39;60.54
69855;BME280;57146;48.140;16.304;2023-04-30T08:06:20;99743.78;;;13.33;57.92
69855;BME280;57146;48.140;16.304;2023-04-30T08:08:47;99746.44;;;13.33;59.67
69855;BME280;57146;48.140;16.304;2023-04-30T08:11:16;99748.63;;;13.31;59.26
69855;BME280;57146;48.140;16.304;2023-04-30T08:13:43;99753.91;;;13.31;59.50
69855;BME280;57146;48.140;16.304;2023-04-30T08:16:10;99764.41;;;13.22;58.22
69855;BME280;57146;48.140;16.304;2023-04-30T08:18:44;99759.28;;;13.17;58.12
69855;BME280;57146;48.140;16.304;2023-04-30T08:21:12;99764.84;;;13.15;58.50
69855;BME280;57146;48.140;16.304;2023-04-30T08:23:40;99766.69;;;13.06;57.07
69855;BME280;57146;48.140;16.304;2023-04-30T08:26:07;99770.03;;;12.98;58.46
69855;BME280;57146;48.140;16.304;2023-04-30T08:28:35;99774.38;;;12.94;58.12
69855;BME280;57146;48.140;16.304;2023-04-30T08:31:02;99775.47;;;12.93;58.18
69855;BME280;57146;48.140;16.304;2023-04-30T08:33:54;99785.13;;;12.98;57.33
69855;BME280;57146;48.140;16.304;2023-04-30T08:36:21;99776.56;;;12.92;58.68
69855;BME280;57146;48.140;16.304;2023-04-30T08:38:49;99777.03;;;12.94;57.60
69855;BME280;57146;48.140;16.304;2023-04-30T08:41:19;99783.88;;;12.95;57.78
69855;BME280;57146;48.140;16.304;2023-04-30T08:43:51;99778.44;;;12.91;57.00
69855;BME280;57146;48.140;16.304;2023-04-30T08:46:19;99784.00;;;12.90;58.10
69855;BME280;57146;48.140;16.304;2023-04-30T08:48:46;99785.28;;;13.01;58.87
69855;BME280;57146;48.140;16.304;2023-04-30T08:51:13;99784.69;;;13.04;58.49
69855;BME280;57146;48.140;16.304;2023-04-30T08:53:41;99783.78;;;13.09;58.81
69855;BME280;57146;48.140;16.304;2023-04-30T08:56:09;99782.53;;;13.06;58.16
69855;BME280;57146;48.140;16.304;2023-04-30T08:58:36;99795.41;;;12.99;56.30
69855;BME280;57146;48.140;16.304;2023-04-30T09:01:05;99795.47;;;12.85;56.76
69855;BME280;57146;48.140;16.304;2023-04-30T09:03:57;99790.63;;;12.79;57.03
69855;BME280;57146;48.140;16.304;2023-04-30T09:06:26;99798.34;;;12.75;57.59
69855;BME280;57146;48.140;16.304;2023-04-30T09:08:53;99795.13;;;12.78;57.90
69855;BME280;57146;48.140;16.304;2023-04-30T09:11:22;99803.41;;;12.85;59.03
69855;BME280;57146;48.140;16.304;2023-04-30T09:13:53;99792.06;;;12.85;58.44
69855;BME280;57146;48.140;16.304;2023-04-30T09:16:20;99790.84;;;12.91;58.67
69855;BME280;57146;48.140;16.304;2023-04-30T09:18:51;99787.91;;;12.92;59.04
69855;BME280;57146;48.140;16.304;2023-04-30T09:21:34;99793.81;;;12.98;58.94
69855;BME280;57146;48.140;16.304;2023-04-30T09:24:05;99790.53;;;12.92;57.41
69855;BME280;57146;48.140;16.304;2023-04-30T09:26:37;99798.34;;;12.98;58.66
69855;BME280;57146;48.140;16.304;2023-04-30T09:29:36;99795.06;;;12.92;57.38
69855;BME280;57146;48.140;16.304;2023-04-30T09:32:08;99790.91;;;13.00;58.40
69855;BME280;57146;48.140;16.304;2023-04-30T09:34:39;99793.72;;;13.03;57.86
69855;BME280;57146;48.140;16.304;2023-04-30T09:37:38;99792.78;;;13.08;58.09
69855;BME280;57146;48.140;16.304;2023-04-30T09:40:05;99787.56;;;13.16;57.28
69855;BME280;57146;48.140;16.304;2023-04-30T09:43:00;99795.28;;;13.35;58.06
69855;BME280;57146;48.140;16.304;2023-04-30T09:45:40;99785.22;;;13.46;58.17
69855;BME280;57146;48.140;16.304;2023-04-30T09:48:08;99785.50;;;13.45;56.13
69855;BME280;57146;48.140;16.304;2023-04-30T09:50:47;99783.97;;;13.44;55.55
69855;BME280;57146;48.140;16.304;2023-04-30T09:53:15;99789.31;;;13.52;57.20
69855;BME280;57146;48.140;16.304;2023-04-30T09:55:44;99787.44;;;13.61;57.66
69855;BME280;57146;48.140;16.304;2023-04-30T09:58:13;99776.88;;;13.61;56.06
69855;BME280;57146;48.140;16.304;2023-04-30T10:00:41;99777.19;;;13.69;56.50
69855;BME280;57146;48.140;16.304;2023-04-30T10:03:10;99778.78;;;13.87;55.97
69855;BME280;57146;48.140;16.304;2023-04-30T10:05:41;99768.22;;;13.87;55.55
69855;BME280;57146;48.140;16.304;2023-04-30T10:08:17;99769.16;;;13.91;56.33
69855;BME280;57146;48.140;16.304;2023-04-30T10:10:46;99764.81;;;13.95;56.67
69855;BME280;57146;48.140;16.304;2023-04-30T10:13:18;99768.06;;;13.92;54.98
69855;BME280;57146;48.140;16.304;2023-04-30T10:15:50;99761.56;;;13.98;54.41
69855;BME280;57146;48.140;16.304;2023-04-30T10:18:27;99753.59;;;13.89;54.14
69855;BME280;57146;48.140;16.304;2023-04-30T10:20:58;99747.69;;;13.93;55.69
69855;BME280;57146;48.140;16.304;2023-04-30T10:23:29;99749.56;;;13.92;56.10
69855;BME280;57146;48.140;16.304;2023-04-30T10:25:56;99741.44;;;13.97;55.95
69855;BME280;57146;48.140;16.304;2023-04-30T10:28:23;99746.13;;;14.00;55.78
69855;BME280;57146;48.140;16.304;2023-04-30T10:30:50;99748.78;;;14.00;55.22
69855;BME280;57146;48.140;16.304;2023-04-30T10:36:03;99738.97;;;14.18;54.90
69855;BME280;57146;48.140;16.304;2023-04-30T10:38:31;99734.13;;;14.29;55.88
69855;BME280;57146;48.140;16.304;2023-04-30T10:41:00;99727.28;;;14.36;54.88
69855;BME280;57146;48.140;16.304;2023-04-30T10:43:30;99732.41;;;14.33;55.58
69855;BME280;57146;48.140;16.304;2023-04-30T10:45:58;99724.94;;;14.35;55.08
69855;BME280;57146;48.140;16.304;2023-04-30T10:48:25;99719.47;;;14.40;53.85
69855;BME280;57146;48.140;16.304;2023-04-30T10:50:57;99719.97;;;14.42;54.62
69855;BME280;57146;48.140;16.304;2023-04-30T10:53:29;99721.97;;;14.45;51.92
69855;BME280;57146;48.140;16.304;2023-04-30T10:56:00;99719.19;;;14.50;52.76
69855;BME280;57146;48.140;16.304;2023-04-30T10:58:34;99712.00;;;14.59;54.23
69855;BME280;57146;48.140;16.304;2023-04-30T11:01:09;99710.13;;;14.60;50.84
69855;BME280;57146;48.140;16.304;2023-04-30T11:04:05;99695.78;;;14.70;52.18
69855;BME280;57146;48.140;16.304;2023-04-30T11:09:41;99702.63;;;14.71;52.00
69855;BME280;57146;48.140;16.304;2023-04-30T11:12:57;99704.19;;;14.72;54.05
69855;BME280;57146;48.140;16.304;2023-04-30T11:15:43;99700.16;;;14.66;53.01
69855;BME280;57146;48.140;16.304;2023-04-30T11:18:12;99703.59;;;14.57;53.45
69855;BME280;57146;48.140;16.304;2023-04-30T11:20:40;99708.28;;;14.52;52.92
69855;BME280;57146;48.140;16.304;2023-04-30T11:23:12;99690.97;;;14.46;51.82
69855;BME280;57146;48.140;16.304;2023-04-30T11:26:06;99704.06;;;14.42;53.02
69855;BME280;57146;48.140;16.304;2023-04-30T11:28:36;99708.44;;;14.38;52.46
69855;BME280;57146;48.140;16.304;2023-04-30T11:31:03;99701.56;;;14.37;53.51
69855;BME280;57146;48.140;16.304;2023-04-30T11:33:32;99706.84;;;14.37;53.68
69855;BME280;57146;48.140;16.304;2023-04-30T11:36:00;99697.69;;;14.34;53.59
69855;BME280;57146;48.140;16.304;2023-04-30T11:38:52;99697.38;;;14.36;53.19
69855;BME280;57146;48.140;16.304;2023-04-30T11:41:22;99698.91;;;14.37;52.98
69855;BME280;57146;48.140;16.304;2023-04-30T11:43:48;99695.19;;;14.38;52.92
69855;BME280;57146;48.140;16.304;2023-04-30T11:46:15;99708.88;;;14.40;53.30
69855;BME280;57146;48.140;16.304;2023-04-30T11:48:45;99697.81;;;14.47;53.48
69855;BME280;57146;48.140;16.304;2023-04-30T11:51:19;99691.94;;;14.50;53.74
69855;BME280;57146;48.140;16.304;2023-04-30T11:53:49;99697.03;;;14.55;54.02
69855;BME280;57146;48.140;16.304;2023-04-30T11:56:18;99695.19;;;14.55;53.92
69855;BME280;57146;48.140;16.304;2023-04-30T11:58:50;99702.81;;;14.57;54.25
69855;BME280;57146;48.140;16.304;2023-04-30T12:01:18;99705.47;;;14.57;54.00
69855;BME280;57146;48.140;16.304;2023-04-30T12:03:48;99701.72;;;14.58;53.74
69855;BME280;57146;48.140;16.304;2023-04-30T12:06:24;99708.44;;;14.55;52.06
69855;BME280;57146;48.140;16.304;2023-04-30T12:08:58;99713.75;;;14.55;52.03
69855;BME280;57146;48.140;16.304;2023-04-30T12:11:28;99712.78;;;14.60;52.79
69855;BME280;57146;48.140;16.304;2023-04-30T12:13:59;99701.84;;;14.70;52.57
69855;BME280;57146;48.140;16.304;2023-04-30T12:16:43;99694.78;;;14.83;53.84
69855;BME280;57146;48.140;16.304;2023-04-30T12:19:11;99689.19;;;14.84;52.08
69855;BME280;57146;48.140;16.304;2023-04-30T12:21:40;99693.22;;;14.91;53.32
69855;BME280;57146;48.140;16.304;2023-04-30T12:24:15;99693.22;;;14.91;53.82
69855;BME280;57146;48.140;16.304;2023-04-30T12:26:45;99690.88;;;14.89;52.86
69855;BME280;57146;48.140;16.304;2023-04-30T12:29:17;99686.69;;;14.88;53.06
69855;BME280;57146;48.140;16.304;2023-04-30T12:31:48;99681.53;;;14.83;52.81
69855;BME280;57146;48.140;16.304;2023-04-30T12:34:15;99689.06;;;14.72;53.85
69855;BME280;57146;48.140;16.304;2023-04-30T12:36:43;99681.91;;;14.64;52.16
69855;BME280;57146;48.140;16.304;2023-04-30T12:39:14;99678.19;;;14.56;53.56
69855;BME280;57146;48.140;16.304;2023-04-30T12:41:44;99684.91;;;14.54;53.95
69855;BME280;57146;48.140;16.304;2023-04-30T12:44:22;99690.19;;;14.54;53.14
69855;BME280;57146;48.140;16.304;2023-04-30T12:46:55;99679.44;;;14.50;53.69
69855;BME280;57146;48.140;16.304;2023-04-30T12:49:22;99685.81;;;14.49;54.12
69855;BME280;57146;48.140;16.304;2023-04-30T12:52:05;99677.72;;;14.46;54.74
69855;BME280;57146;48.140;16.304;2023-04-30T12:54:35;99671.97;;;14.52;55.38
69855;BME280;57146;48.140;16.304;2023-04-30T12:57:10;99677.09;;;14.57;54.94
69855;BME280;57146;48.140;16.304;2023-04-30T13:02:42;99678.50;;;14.64;55.73
69855;BME280;57146;48.140;16.304;2023-04-30T13:05:10;99679.59;;;14.63;55.73
69855;BME280;57146;48.140;16.304;2023-04-30T13:07:39;99677.88;;;14.58;55.36
69855;BME280;57146;48.140;16.304;2023-04-30T13:10:06;99671.34;;;14.55;55.75
69855;BME280;57146;48.140;16.304;2023-04-30T13:12:37;99660.75;;;14.55;55.87
69855;BME280;57146;48.140;16.304;2023-04-30T13:15:05;99666.19;;;14.59;56.11
69855;BME280;57146;48.140;16.304;2023-04-30T13:17:36;99677.56;;;14.59;56.22
69855;BME280;57146;48.140;16.304;2023-04-30T13:20:03;99670.56;;;14.55;55.08